createdAt,value
2018-03-03T00:00:16.715Z,9.10
2018-03-03T00:02:46.051Z,10.77
2018-03-03T00:05:15.815Z,12.20
2018-03-03T00:07:44.799Z,10.50
2018-03-03T00:10:14.259Z,10.83
2018-03-03T00:12:43.208Z,10.97
2018-03-03T00:15:12.250Z,10.37
2018-03-03T00:17:42.055Z,10.23
2018-03-03T00:20:11.836Z,13.27
2018-03-03T00:22:41.633Z,11.73
2018-03-03T00:25:10.671Z,11.47
2018-03-03T00:27:40.422Z,10.90
2018-03-03T00:30:09.397Z,10.00
2018-03-03T00:32:38.419Z,11.87
2018-03-03T00:35:07.410Z,10.67
2018-03-03T00:37:36.767Z,10.27
2018-03-03T00:40:06.514Z,11.23
2018-03-03T00:42:35.484Z,11.20
2018-03-03T00:45:04.844Z,11.90
2018-03-03T00:47:34.635Z,11.17
2018-03-03T00:50:03.585Z,9.63
2018-03-03T00:52:32.728Z,10.43
2018-03-03T00:55:03.301Z,8.10
2018-03-03T00:57:32.713Z,10.90
2018-03-03T01:00:01.703Z,11.83
2018-03-03T01:02:30.654Z,10.23
2018-03-03T01:05:00.462Z,10.83
2018-03-03T01:07:29.410Z,8.10
2018-03-03T01:09:59.242Z,12.27
2018-03-03T01:12:28.284Z,10.07
2018-03-03T01:14:57.644Z,9.17
2018-03-03T01:17:27.121Z,11.03
2018-03-03T01:19:56.877Z,10.67
2018-03-03T01:22:26.253Z,10.20
2018-03-03T01:24:56.104Z,10.37
2018-03-03T01:27:25.862Z,9.20
2018-03-03T01:29:55.249Z,9.57
2018-03-03T01:32:24.196Z,10.50
2018-03-03T01:34:53.191Z,9.60
2018-03-03T01:37:22.154Z,10.87
2018-03-03T01:39:51.515Z,8.87
2018-03-03T01:42:20.991Z,9.50
2018-03-03T01:44:51.527Z,10.33
2018-03-03T01:47:20.600Z,9.97
2018-03-03T01:49:50.063Z,9.87
2018-03-03T01:52:19.082Z,9.37
2018-03-03T01:54:48.030Z,10.30
2018-03-03T01:57:17.767Z,9.67
2018-03-03T01:59:46.767Z,10.40
2018-03-03T02:02:16.355Z,8.33
2018-03-03T02:04:45.765Z,10.77
2018-03-03T02:07:14.742Z,10.63
2018-03-03T02:09:44.457Z,10.27
2018-03-03T02:12:13.435Z,8.90
2018-03-03T02:14:42.427Z,10.20
2018-03-03T02:17:11.840Z,9.67
2018-03-03T02:19:40.776Z,10.77
2018-03-03T02:22:10.534Z,10.47
2018-03-03T02:24:39.535Z,10.63
2018-03-03T02:27:09.345Z,11.47
2018-03-03T02:29:38.683Z,9.00
2018-03-03T02:32:08.025Z,10.67
2018-03-03T02:34:37.768Z,11.00
2018-03-03T02:37:06.776Z,8.00
2018-03-03T02:39:35.821Z,11.50
2018-03-03T02:42:05.638Z,10.00
2018-03-03T02:44:34.965Z,9.17
2018-03-03T02:47:03.947Z,11.47
2018-03-03T02:49:32.924Z,12.70
2018-03-03T02:52:02.660Z,9.80
2018-03-03T02:54:31.684Z,9.87
2018-03-03T02:57:01.522Z,9.77
2018-03-03T02:59:31.262Z,10.07
2018-03-03T03:02:00.604Z,11.67
2018-03-03T03:04:29.621Z,9.60
2018-03-03T03:06:58.597Z,12.13
2018-03-03T03:09:30.208Z,12.03
2018-03-03T03:11:59.152Z,12.00
2018-03-03T03:14:28.108Z,10.23
2018-03-03T03:16:57.491Z,10.43
2018-03-03T03:19:26.947Z,11.30
2018-03-03T03:21:55.901Z,11.43
2018-03-03T03:24:24.955Z,10.03
2018-03-03T03:26:54.664Z,11.10
2018-03-03T03:29:24.445Z,9.80
2018-03-03T03:31:53.406Z,10.00
2018-03-03T03:34:22.358Z,10.53
2018-03-03T03:36:52.087Z,9.87
2018-03-03T03:39:21.150Z,10.20
2018-03-03T03:41:50.132Z,11.40
2018-03-03T03:44:19.841Z,11.07
2018-03-03T03:46:48.803Z,11.10
2018-03-03T03:49:18.185Z,10.90
2018-03-03T03:51:47.151Z,9.40
2018-03-03T03:54:16.517Z,10.10
2018-03-03T03:56:45.897Z,11.70
2018-03-03T03:59:14.847Z,7.23
2018-03-03T04:01:44.236Z,10.63
2018-03-03T04:04:13.236Z,10.53
2018-03-03T04:06:42.185Z,9.30
2018-03-03T04:09:11.276Z,9.87
2018-03-03T04:11:40.240Z,7.83
2018-03-03T04:14:09.218Z,9.83
2018-03-03T04:16:39.002Z,9.07
2018-03-03T04:19:07.969Z,11.73
2018-03-03T04:21:37.004Z,10.53
2018-03-03T04:24:05.985Z,10.10
2018-03-03T04:26:35.705Z,10.03
2018-03-03T04:29:05.418Z,10.50
2018-03-03T04:31:34.578Z,10.23
2018-03-03T04:34:03.528Z,12.13
2018-03-03T04:36:32.564Z,13.63
2018-03-03T04:39:01.513Z,11.90
2018-03-03T04:41:30.476Z,10.10
2018-03-03T04:44:00.189Z,12.10
2018-03-03T04:46:31.274Z,11.07
2018-03-03T04:49:00.234Z,9.17
2018-03-03T04:51:30.021Z,10.90
2018-03-03T04:53:59.757Z,10.97
2018-03-03T04:56:28.740Z,11.13
2018-03-03T04:59:14.179Z,12.03
2018-03-03T05:15:19.224Z,9.93
2018-03-03T05:18:07.272Z,10.07
2018-03-03T05:20:42.129Z,10.10
2018-03-03T05:23:16.695Z,12.13
2018-03-03T05:25:51.346Z,12.77
2018-03-03T05:41:58.504Z,11.40
2018-03-03T05:44:33.168Z,13.13
2018-03-03T05:47:10.801Z,11.93
2018-03-03T05:49:40.537Z,18.75
2018-03-03T05:52:21.176Z,15.83
2018-03-03T05:55:08.926Z,13.90
2018-03-03T05:57:43.484Z,12.17
2018-03-03T06:00:18.196Z,12.07
2018-03-03T06:02:53.588Z,13.70
2018-03-03T06:05:28.130Z,13.97
2018-03-03T06:08:02.549Z,13.30
2018-03-03T06:10:34.172Z,12.13
2018-03-03T06:13:03.317Z,11.33
2018-03-03T06:15:32.724Z,11.37
2018-03-03T06:18:02.474Z,12.33
2018-03-03T06:20:31.440Z,10.60
2018-03-03T06:23:01.163Z,11.70
2018-03-03T06:25:30.503Z,12.87
2018-03-03T06:27:59.496Z,13.03
2018-03-03T06:30:28.882Z,10.97
2018-03-03T06:32:58.254Z,11.77
2018-03-03T06:35:27.256Z,12.40
2018-03-03T06:37:56.228Z,12.90
2018-03-03T06:40:26.012Z,13.10
2018-03-03T06:42:55.005Z,13.87
2018-03-03T06:45:24.919Z,13.90
2018-03-03T06:47:53.909Z,14.50
2018-03-03T06:50:22.948Z,14.17
2018-03-03T06:52:52.680Z,13.80
2018-03-03T06:55:21.684Z,18.30
2018-03-03T06:57:51.075Z,14.30
2018-03-03T07:00:20.169Z,12.10
2018-03-03T07:02:49.244Z,14.10
2018-03-03T07:05:18.221Z,15.30
2018-03-03T07:07:47.853Z,11.53
2018-03-03T07:10:17.934Z,12.90
2018-03-03T07:12:47.834Z,12.20
2018-03-03T07:15:17.367Z,12.23
2018-03-03T07:17:46.813Z,12.80
2018-03-03T07:20:17.637Z,13.87
2018-03-03T07:22:47.048Z,12.50
2018-03-03T07:25:16.157Z,15.40
2018-03-03T07:27:45.904Z,13.97
2018-03-03T07:30:16.313Z,14.23
2018-03-03T07:32:45.356Z,12.30
2018-03-03T07:35:15.248Z,12.77
2018-03-03T07:37:45.070Z,14.30
2018-03-03T07:40:14.439Z,13.30
2018-03-03T07:42:44.237Z,13.70
2018-03-03T07:45:13.640Z,14.23
2018-03-03T07:47:42.627Z,14.37
2018-03-03T07:50:12.474Z,13.50
2018-03-03T07:52:41.490Z,12.90
2018-03-03T07:55:10.573Z,14.20
2018-03-03T07:57:40.310Z,13.47
2018-03-03T08:00:13.490Z,16.43
2018-03-03T08:02:44.374Z,15.57
2018-03-03T08:05:15.646Z,13.17
2018-03-03T08:07:45.922Z,12.73
2018-03-03T08:10:14.915Z,14.60
2018-03-03T08:12:44.576Z,14.57
2018-03-03T08:15:13.586Z,16.57
2018-03-03T08:17:42.601Z,15.70
2018-03-03T08:20:12.278Z,16.30
2018-03-03T08:22:42.745Z,15.63
2018-03-03T08:25:13.686Z,16.13
2018-03-03T08:27:43.862Z,15.10
2018-03-03T08:30:13.474Z,16.77
2018-03-03T08:32:42.980Z,14.73
2018-03-03T08:35:12.645Z,14.60
2018-03-03T08:37:43.339Z,16.20
2018-03-03T08:40:12.742Z,17.63
2018-03-03T08:42:42.480Z,16.67
2018-03-03T08:45:12.001Z,16.67
2018-03-03T08:47:42.396Z,17.20
2018-03-03T08:50:11.359Z,17.80
2018-03-03T08:52:41.295Z,16.40
2018-03-03T08:55:10.284Z,15.00
2018-03-03T08:57:40.081Z,16.67
2018-03-03T09:00:09.095Z,17.30
2018-03-03T09:02:39.862Z,17.10
2018-03-03T09:05:09.688Z,13.83
2018-03-03T09:07:39.656Z,17.40
2018-03-03T09:10:09.874Z,18.63
2018-03-03T09:12:39.267Z,16.50
2018-03-03T09:15:08.269Z,16.37
2018-03-03T09:17:38.050Z,17.70
2018-03-03T09:20:08.825Z,16.83
2018-03-03T09:22:39.623Z,18.83
2018-03-03T09:25:09.825Z,18.10
2018-03-03T09:27:38.896Z,18.63
2018-03-03T09:30:08.897Z,16.53
2018-03-03T09:32:37.890Z,19.40
2018-03-03T09:35:07.373Z,16.17
2018-03-03T09:37:37.766Z,16.93
2018-03-03T09:40:07.373Z,17.47
2018-03-03T09:42:36.895Z,14.87
2018-03-03T09:45:07.825Z,16.57
2018-03-03T09:47:37.493Z,18.00
2018-03-03T09:50:06.500Z,16.37
2018-03-03T09:52:36.473Z,18.70
2018-03-03T09:55:05.470Z,18.07
2018-03-03T09:57:34.452Z,16.37
2018-03-03T10:00:06.578Z,15.60
2018-03-03T10:02:35.744Z,17.77
2018-03-03T10:05:05.188Z,16.57
2018-03-03T10:07:35.006Z,17.63
2018-03-03T10:10:04.485Z,17.23
2018-03-03T10:12:34.221Z,17.63
2018-03-03T10:15:03.323Z,18.63
2018-03-03T10:17:32.521Z,17.27
2018-03-03T10:20:01.531Z,17.87
2018-03-03T10:22:30.497Z,18.50
2018-03-03T10:25:00.436Z,17.33
2018-03-03T10:27:29.448Z,15.70
2018-03-03T10:29:58.477Z,16.77
2018-03-03T10:32:27.524Z,18.53
2018-03-03T10:34:57.210Z,16.83
2018-03-03T10:37:26.472Z,15.67
2018-03-03T10:39:55.843Z,18.47
2018-03-03T10:42:25.991Z,19.23
2018-03-03T10:44:55.397Z,19.77
2018-03-03T10:47:27.236Z,16.30
2018-03-03T10:49:57.494Z,16.80
2018-03-03T10:52:27.356Z,16.90
2018-03-03T10:54:59.279Z,17.43
2018-03-03T10:57:29.619Z,15.53
2018-03-03T10:59:58.685Z,16.70
2018-03-03T11:02:28.352Z,17.60
2018-03-03T11:04:57.365Z,14.57
2018-03-03T11:07:26.442Z,15.67
2018-03-03T11:09:56.046Z,17.53
2018-03-03T11:12:25.872Z,14.40
2018-03-03T11:14:55.645Z,18.20
2018-03-03T11:17:26.190Z,17.80
2018-03-03T11:19:55.201Z,16.03
2018-03-03T11:22:24.317Z,17.60
2018-03-03T11:24:54.226Z,16.60
2018-03-03T11:27:24.020Z,16.90
2018-03-03T11:29:53.952Z,17.00
2018-03-03T11:32:23.778Z,17.53
2018-03-03T11:34:52.860Z,16.60
2018-03-03T11:37:23.282Z,15.73
2018-03-03T11:39:52.660Z,16.97
2018-03-03T11:42:22.178Z,15.73
2018-03-03T11:44:51.185Z,18.60
2018-03-03T11:47:20.971Z,14.03
2018-03-03T11:49:50.921Z,16.77
2018-03-03T11:52:20.579Z,19.10
2018-03-03T11:54:50.699Z,17.40
2018-03-03T11:57:21.595Z,17.20
2018-03-03T11:59:51.426Z,16.80
2018-03-03T12:02:21.008Z,19.80
2018-03-03T12:04:50.099Z,17.73
2018-03-03T12:07:20.447Z,17.00
2018-03-03T12:09:50.079Z,18.50
2018-03-03T12:12:19.081Z,17.07
2018-03-03T12:14:50.324Z,17.13
2018-03-03T12:17:19.340Z,16.70
2018-03-03T12:19:48.930Z,17.67
2018-03-03T12:22:18.847Z,16.27
2018-03-03T12:24:50.154Z,15.10
2018-03-03T12:27:20.205Z,16.73
2018-03-03T12:30:05.849Z,15.87
2018-03-03T12:32:34.876Z,17.07
2018-03-03T12:35:03.907Z,16.90
2018-03-03T12:37:32.895Z,16.30
2018-03-03T12:40:24.107Z,16.43
2018-03-03T12:43:07.378Z,17.57
2018-03-03T12:45:36.351Z,15.97
2018-03-03T12:48:05.346Z,15.30
2018-03-03T12:50:34.701Z,15.93
2018-03-03T12:53:03.657Z,16.90
2018-03-03T12:55:32.644Z,16.07
2018-03-03T12:58:01.659Z,16.40
2018-03-03T13:00:31.422Z,14.93
2018-03-03T13:03:01.144Z,17.10
2018-03-03T13:05:30.506Z,16.30
2018-03-03T13:07:59.876Z,17.67
2018-03-03T13:10:28.859Z,16.30
2018-03-03T13:12:57.952Z,17.80
2018-03-03T13:15:27.836Z,16.57
2018-03-03T13:17:56.787Z,16.43
2018-03-03T13:20:26.574Z,17.00
2018-03-03T13:22:55.537Z,16.77
2018-03-03T13:25:24.541Z,18.03
2018-03-03T13:27:53.477Z,15.60
2018-03-03T13:30:22.411Z,16.20
2018-03-03T13:32:51.392Z,16.30
2018-03-03T13:35:20.551Z,14.97
2018-03-03T13:37:49.533Z,16.70
2018-03-03T13:40:18.542Z,16.00
2018-03-03T13:42:47.551Z,16.60
2018-03-03T13:45:17.348Z,15.60
2018-03-03T13:47:46.284Z,15.90
2018-03-03T13:50:15.297Z,15.37
2018-03-03T13:52:44.692Z,15.10
2018-03-03T13:55:14.506Z,14.87
2018-03-03T13:57:43.853Z,15.40
2018-03-03T14:00:12.921Z,15.33
2018-03-03T14:02:42.286Z,15.90
2018-03-03T14:05:11.382Z,15.30
2018-03-03T14:07:41.526Z,15.93
2018-03-03T14:10:10.533Z,16.30
2018-03-03T14:12:41.100Z,14.80
2018-03-03T14:15:10.132Z,15.00
2018-03-03T14:17:39.927Z,15.43
2018-03-03T14:20:09.350Z,14.43
2018-03-03T14:22:38.312Z,14.80
2018-03-03T14:25:07.261Z,15.37
2018-03-03T14:27:36.248Z,15.70
2018-03-03T14:30:07.510Z,16.17
2018-03-03T14:32:37.223Z,15.57
2018-03-03T14:35:06.577Z,15.87
2018-03-03T14:37:35.565Z,15.53
2018-03-03T14:40:04.564Z,14.40
2018-03-03T14:42:33.570Z,14.77
2018-03-03T14:45:02.551Z,15.17
2018-03-03T14:47:31.817Z,16.07
2018-03-03T14:50:01.553Z,15.03
2018-03-03T14:52:30.540Z,15.93
2018-03-03T14:55:00.343Z,16.20
2018-03-03T14:57:30.129Z,14.60
2018-03-03T14:59:59.173Z,15.70
2018-03-03T15:02:28.181Z,15.50
2018-03-03T15:04:57.545Z,15.00
2018-03-03T15:07:27.309Z,13.23
2018-03-03T15:09:56.280Z,15.20
2018-03-03T15:12:25.755Z,14.50
2018-03-03T15:14:55.545Z,16.10
2018-03-03T15:17:24.626Z,14.57
2018-03-03T15:19:54.008Z,14.87
2018-03-03T15:22:23.848Z,14.53
2018-03-03T15:24:53.548Z,14.70
2018-03-03T15:27:23.354Z,14.57
2018-03-03T15:29:53.204Z,15.60
2018-03-03T15:32:24.129Z,14.57
2018-03-03T15:34:53.523Z,13.43
2018-03-03T15:37:23.271Z,14.77
2018-03-03T15:39:52.257Z,14.37
2018-03-03T15:42:22.908Z,15.17
2018-03-03T15:44:52.711Z,16.30
2018-03-03T15:47:23.332Z,15.90
2018-03-03T15:49:53.517Z,12.60
2018-03-03T15:52:23.284Z,12.23
2018-03-03T15:54:53.098Z,13.83
2018-03-03T15:57:22.162Z,14.43
2018-03-03T15:59:51.983Z,12.40
2018-03-03T16:02:22.493Z,11.57
2018-03-03T16:04:52.115Z,12.20
2018-03-03T16:07:21.645Z,12.40
2018-03-03T16:09:51.457Z,12.20
2018-03-03T16:12:20.538Z,12.00
2018-03-03T16:14:50.237Z,11.20
2018-03-03T16:17:19.249Z,12.90
2018-03-03T16:19:48.653Z,11.60
2018-03-03T16:22:17.757Z,12.27
2018-03-03T16:24:46.741Z,12.30
2018-03-03T16:27:15.792Z,13.20
2018-03-03T16:29:46.199Z,13.43
2018-03-03T16:32:16.622Z,13.20
2018-03-03T16:34:45.583Z,14.47
2018-03-03T16:37:15.358Z,14.80
2018-03-03T16:39:45.153Z,11.37
2018-03-03T16:42:15.228Z,11.53
2018-03-03T16:44:44.352Z,11.93
2018-03-03T16:47:14.309Z,12.60
2018-03-03T16:49:43.427Z,13.50
2018-03-03T16:52:13.933Z,11.17
2018-03-03T16:54:42.993Z,12.40
2018-03-03T16:57:13.722Z,16.57
2018-03-03T16:59:43.532Z,12.80
2018-03-03T17:02:13.374Z,14.40
2018-03-03T17:04:42.445Z,13.20
2018-03-03T17:07:12.261Z,14.47
2018-03-03T17:09:42.953Z,12.63
2018-03-03T17:12:11.904Z,13.53
2018-03-03T17:14:41.352Z,13.73
2018-03-03T17:17:10.427Z,12.27
2018-03-03T17:19:40.282Z,14.30
2018-03-03T17:22:10.040Z,12.07
2018-03-03T17:24:39.008Z,13.00
2018-03-03T17:27:08.442Z,12.47
2018-03-03T17:29:37.837Z,13.20
2018-03-03T17:32:07.102Z,14.27
2018-03-03T17:34:36.834Z,11.13
2018-03-03T17:37:06.181Z,12.50
2018-03-03T17:39:35.953Z,12.10
2018-03-03T17:42:05.692Z,13.20
2018-03-03T17:44:36.245Z,11.77
2018-03-03T17:47:05.965Z,12.83
2018-03-03T17:49:35.745Z,12.47
2018-03-03T17:52:05.498Z,12.57
2018-03-03T17:54:34.528Z,11.93
2018-03-03T17:57:03.645Z,14.00
2018-03-03T17:59:32.632Z,13.17
2018-03-03T18:02:01.590Z,13.40
2018-03-03T18:04:30.982Z,13.67
2018-03-03T18:06:59.961Z,12.20
2018-03-03T18:09:30.165Z,12.70
2018-03-03T18:11:59.894Z,12.00
2018-03-03T18:14:29.630Z,13.80
2018-03-03T18:16:58.616Z,13.10
2018-03-03T18:19:30.393Z,13.50
2018-03-03T18:21:59.426Z,12.43
2018-03-03T18:24:35.764Z,12.90
2018-03-03T18:27:06.294Z,13.10
2018-03-03T18:29:36.050Z,12.00
2018-03-03T18:32:05.423Z,13.03
2018-03-03T18:34:35.245Z,12.80
2018-03-03T18:37:04.970Z,13.73
2018-03-03T18:39:33.944Z,11.77
2018-03-03T18:42:03.356Z,13.97
2018-03-03T18:44:33.099Z,14.03
2018-03-03T18:47:02.542Z,12.57
2018-03-03T18:49:31.544Z,13.17
2018-03-03T18:52:01.327Z,15.30
2018-03-03T18:54:30.364Z,13.30
2018-03-03T18:57:00.102Z,13.90
2018-03-03T18:59:29.918Z,14.50
2018-03-03T19:01:59.666Z,13.60
2018-03-03T19:04:30.192Z,13.70
2018-03-03T19:06:59.234Z,12.93
2018-03-03T19:09:28.308Z,15.00
2018-03-03T19:11:57.302Z,14.93
2018-03-03T19:14:27.101Z,14.97
2018-03-03T19:16:56.108Z,14.07
2018-03-03T19:19:25.770Z,14.80
2018-03-03T19:21:54.913Z,14.10
2018-03-03T19:24:24.648Z,14.10
2018-03-03T19:26:53.674Z,14.53
2018-03-03T19:29:23.508Z,15.47
2018-03-03T19:31:52.931Z,15.33
2018-03-03T19:34:22.714Z,17.60
2018-03-03T19:36:52.143Z,17.20
2018-03-03T19:39:21.182Z,14.33
2018-03-03T19:41:50.178Z,15.17
2018-03-03T19:44:20.003Z,13.10
2018-03-03T19:46:49.441Z,14.90
2018-03-03T19:49:19.270Z,13.67
2018-03-03T19:51:48.678Z,15.20
2018-03-03T19:54:17.878Z,14.83
2018-03-03T19:56:46.907Z,13.70
2018-03-03T19:59:16.861Z,13.40
2018-03-03T20:01:46.638Z,12.77
2018-03-03T20:04:16.717Z,13.87
2018-03-03T20:06:46.038Z,13.70
2018-03-03T20:09:15.843Z,13.43
2018-03-03T20:11:45.606Z,13.33
2018-03-03T20:14:15.525Z,14.07
2018-03-03T20:16:44.546Z,13.00
2018-03-03T20:19:14.329Z,15.10
2018-03-03T20:21:44.117Z,12.57
2018-03-03T20:24:13.723Z,13.10
2018-03-03T20:26:43.487Z,13.13
2018-03-03T20:29:13.756Z,13.90
2018-03-03T20:31:43.427Z,12.37
2018-03-03T20:34:12.842Z,11.67
2018-03-03T20:36:42.342Z,14.60
2018-03-03T20:39:11.907Z,11.87
2018-03-03T20:41:41.326Z,12.20
2018-03-03T20:44:10.392Z,13.97
2018-03-03T20:46:39.536Z,11.20
2018-03-03T20:49:09.601Z,13.50
2018-03-03T20:51:38.709Z,11.57
2018-03-03T20:54:09.326Z,10.30
2018-03-03T20:56:38.349Z,15.10
2018-03-03T20:59:07.736Z,10.83
2018-03-03T21:01:37.690Z,13.13
2018-03-03T21:04:07.043Z,11.40
2018-03-03T21:06:36.861Z,13.13
2018-03-03T21:09:06.695Z,12.30
2018-03-03T21:11:40.413Z,13.10
2018-03-03T21:14:10.201Z,11.33
2018-03-03T21:16:39.235Z,11.63
2018-03-03T21:19:08.296Z,11.80
2018-03-03T21:21:37.310Z,12.57
2018-03-03T21:24:06.344Z,13.63
2018-03-03T21:26:36.647Z,12.93
2018-03-03T21:29:06.426Z,12.37
2018-03-03T21:31:35.490Z,10.70
2018-03-03T21:34:05.319Z,10.93
2018-03-03T21:36:34.380Z,11.87
2018-03-03T21:39:03.394Z,11.27
2018-03-03T21:41:33.163Z,12.60
2018-03-03T21:44:02.138Z,11.27
2018-03-03T21:46:31.433Z,10.60
2018-03-03T21:49:00.447Z,11.50
2018-03-03T21:51:29.837Z,11.20
2018-03-03T21:53:58.830Z,10.40
2018-03-03T21:56:28.852Z,12.57
2018-03-03T21:58:58.950Z,11.90
2018-03-03T22:01:28.362Z,12.57
2018-03-03T22:03:57.747Z,11.23
2018-03-03T22:06:26.746Z,11.50
2018-03-03T22:08:56.520Z,10.50
2018-03-03T22:11:26.771Z,11.57
2018-03-03T22:13:55.732Z,11.10
2018-03-03T22:16:25.992Z,10.50
2018-03-03T22:18:55.049Z,11.43
2018-03-03T22:21:24.834Z,11.03
2018-03-03T22:23:53.845Z,13.50
2018-03-03T22:26:23.689Z,9.83
2018-03-03T22:28:52.683Z,11.40
2018-03-03T22:31:21.752Z,12.13
2018-03-03T22:33:50.695Z,11.63
2018-03-03T22:36:19.669Z,10.50
2018-03-03T22:38:48.706Z,10.13
2018-03-03T22:41:19.246Z,13.10
2018-03-03T22:43:48.225Z,11.30
2018-03-03T22:46:17.805Z,10.77
2018-03-03T22:48:46.814Z,11.97
2018-03-03T22:51:16.655Z,11.27
2018-03-03T22:53:45.611Z,12.73
2018-03-03T22:56:14.605Z,13.40
2018-03-03T22:58:43.623Z,13.63
2018-03-03T23:01:13.362Z,12.40
2018-03-03T23:03:42.658Z,13.23
2018-03-03T23:06:11.627Z,12.37
2018-03-03T23:08:40.667Z,12.67
2018-03-03T23:11:09.625Z,12.87
2018-03-03T23:13:39.333Z,12.73
2018-03-03T23:16:09.174Z,11.77
2018-03-03T23:18:38.577Z,11.73
2018-03-03T23:21:07.540Z,11.20
2018-03-03T23:23:37.288Z,13.00
2018-03-03T23:26:06.285Z,12.10
2018-03-03T23:28:35.245Z,11.70
2018-03-03T23:31:04.254Z,11.20
2018-03-03T23:33:33.198Z,12.13
2018-03-03T23:36:02.447Z,13.57
2018-03-03T23:38:31.816Z,12.90
2018-03-03T23:41:01.564Z,12.73
2018-03-03T23:43:30.519Z,11.17
2018-03-03T23:45:59.981Z,13.53
2018-03-03T23:48:29.386Z,13.30
2018-03-03T23:50:58.344Z,13.97
2018-03-03T23:53:27.353Z,13.50
2018-03-03T23:55:56.360Z,11.37
2018-03-03T23:58:25.345Z,11.33
